KR-0340 weather

Haeundae Doosan We’ve Centrum Apartments Heliport
Haeundae (Busan), Busan Gwang'yeogsi, South Korea

Public forecast

Using degrees Celsius for public forecast. Weather courtesy of forecast.io.

METAR (pilot weather report)

Closest report is Gimhae International Airport, 11.7 nm (21.7 km) W. Retrieved 2019/08/20 15:00 UTC (49 minutes ago):

RKPK 201500Z 04007KT 9999 FEW025 SCT050 BKN080 26/20 Q1009

TAF (pilot weather forecast)

Closest forecast is Gimhae International Airport, 11.7 nm (21.7 km) W. Retrieved 2019/08/20 12:00 UTC (4 hours ago):

TAF RKPK 201100Z 2012/2118 06008KT 9999 BKN030 BKN100 TN26/2020Z TX29/2105Z BECMG 2023/2024 18006KT 8000 -RA BKN015 OVC030